sensor_id;sensor_type;location;lat;lon;timestamp;P1;durP1;ratioP1;P2;durP2;ratioP2
61785;SDS011;47692;53.714;11.372;2023-04-08T00:00:48;10.70;;;6.22;;
61785;SDS011;47692;53.714;11.372;2023-04-08T00:03:14;12.30;;;6.40;;
61785;SDS011;47692;53.714;11.372;2023-04-08T00:05:39;10.82;;;5.75;;
61785;SDS011;47692;53.714;11.372;2023-04-08T00:08:05;12.18;;;6.47;;
61785;SDS011;47692;53.714;11.372;2023-04-08T00:10:30;12.90;;;6.45;;
61785;SDS011;47692;53.714;11.372;2023-04-08T00:12:56;12.95;;;6.38;;
61785;SDS011;47692;53.714;11.372;2023-04-08T00:15:21;12.68;;;7.00;;
61785;SDS011;47692;53.714;11.372;2023-04-08T00:17:46;13.38;;;6.60;;
61785;SDS011;47692;53.714;11.372;2023-04-08T00:20:12;12.95;;;7.47;;
61785;SDS011;47692;53.714;11.372;2023-04-08T00:22:37;14.50;;;6.30;;
61785;SDS011;47692;53.714;11.372;2023-04-08T00:25:02;15.55;;;7.20;;
61785;SDS011;47692;53.714;11.372;2023-04-08T00:27:31;13.10;;;6.40;;
61785;SDS011;47692;53.714;11.372;2023-04-08T00:29:58;14.32;;;6.95;;
61785;SDS011;47692;53.714;11.372;2023-04-08T00:32:24;12.35;;;7.53;;
61785;SDS011;47692;53.714;11.372;2023-04-08T00:34:50;13.10;;;6.88;;
61785;SDS011;47692;53.714;11.372;2023-04-08T00:37:15;15.50;;;7.20;;
61785;SDS011;47692;53.714;11.372;2023-04-08T00:39:41;15.38;;;7.90;;
61785;SDS011;47692;53.714;11.372;2023-04-08T00:42:06;15.15;;;7.30;;
61785;SDS011;47692;53.714;11.372;2023-04-08T00:44:32;14.05;;;7.32;;
61785;SDS011;47692;53.714;11.372;2023-04-08T00:46:57;17.67;;;7.45;;
61785;SDS011;47692;53.714;11.372;2023-04-08T00:49:22;14.65;;;6.72;;
61785;SDS011;47692;53.714;11.372;2023-04-08T00:51:48;15.27;;;7.28;;
61785;SDS011;47692;53.714;11.372;2023-04-08T00:54:13;16.25;;;7.63;;
61785;SDS011;47692;53.714;11.372;2023-04-08T00:56:38;15.50;;;8.38;;
61785;SDS011;47692;53.714;11.372;2023-04-08T00:59:04;14.85;;;7.07;;
61785;SDS011;47692;53.714;11.372;2023-04-08T01:06:49;17.80;;;7.97;;
61785;SDS011;47692;53.714;11.372;2023-04-08T01:09:17;13.20;;;7.00;;
61785;SDS011;47692;53.714;11.372;2023-04-08T01:11:45;12.70;;;7.28;;
61785;SDS011;47692;53.714;11.372;2023-04-08T01:14:15;14.85;;;7.28;;
61785;SDS011;47692;53.714;11.372;2023-04-08T01:16:44;17.67;;;8.23;;
61785;SDS011;47692;53.714;11.372;2023-04-08T01:19:10;15.40;;;8.10;;
61785;SDS011;47692;53.714;11.372;2023-04-08T01:21:46;16.15;;;9.13;;
61785;SDS011;47692;53.714;11.372;2023-04-08T01:27:06;18.80;;;9.18;;
61785;SDS011;47692;53.714;11.372;2023-04-08T01:29:33;22.27;;;10.50;;
61785;SDS011;47692;53.714;11.372;2023-04-08T01:32:00;19.15;;;10.02;;
61785;SDS011;47692;53.714;11.372;2023-04-08T01:34:27;19.25;;;9.20;;
61785;SDS011;47692;53.714;11.372;2023-04-08T01:36:54;22.23;;;10.55;;
61785;SDS011;47692;53.714;11.372;2023-04-08T01:39:19;23.13;;;9.95;;
61785;SDS011;47692;53.714;11.372;2023-04-08T01:41:45;19.00;;;9.30;;
61785;SDS011;47692;53.714;11.372;2023-04-08T01:44:12;23.15;;;9.70;;
61785;SDS011;47692;53.714;11.372;2023-04-08T01:46:39;21.65;;;10.32;;
61785;SDS011;47692;53.714;11.372;2023-04-08T01:49:06;21.83;;;10.52;;
61785;SDS011;47692;53.714;11.372;2023-04-08T01:51:33;24.42;;;11.10;;
61785;SDS011;47692;53.714;11.372;2023-04-08T01:54:00;20.15;;;9.77;;
61785;SDS011;47692;53.714;11.372;2023-04-08T01:56:25;22.10;;;10.18;;
61785;SDS011;47692;53.714;11.372;2023-04-08T01:58:55;21.10;;;10.25;;
61785;SDS011;47692;53.714;11.372;2023-04-08T02:01:24;21.23;;;10.93;;
61785;SDS011;47692;53.714;11.372;2023-04-08T02:03:51;22.15;;;10.32;;
61785;SDS011;47692;53.714;11.372;2023-04-08T02:06:21;24.40;;;10.90;;
61785;SDS011;47692;53.714;11.372;2023-04-08T02:08:46;21.65;;;9.45;;
61785;SDS011;47692;53.714;11.372;2023-04-08T02:11:12;20.50;;;10.25;;
61785;SDS011;47692;53.714;11.372;2023-04-08T02:13:37;22.70;;;10.35;;
61785;SDS011;47692;53.714;11.372;2023-04-08T02:16:05;25.67;;;10.85;;
61785;SDS011;47692;53.714;11.372;2023-04-08T02:18:41;22.88;;;9.93;;
61785;SDS011;47692;53.714;11.372;2023-04-08T02:21:13;25.10;;;10.95;;
61785;SDS011;47692;53.714;11.372;2023-04-08T02:23:40;21.65;;;9.80;;
61785;SDS011;47692;53.714;11.372;2023-04-08T02:26:12;21.00;;;9.68;;
61785;SDS011;47692;53.714;11.372;2023-04-08T02:28:39;19.63;;;9.45;;
61785;SDS011;47692;53.714;11.372;2023-04-08T02:31:08;19.23;;;10.07;;
61785;SDS011;47692;53.714;11.372;2023-04-08T02:33:37;20.23;;;9.20;;
61785;SDS011;47692;53.714;11.372;2023-04-08T02:36:03;19.23;;;9.23;;
61785;SDS011;47692;53.714;11.372;2023-04-08T02:38:30;21.73;;;9.55;;
61785;SDS011;47692;53.714;11.372;2023-04-08T02:40:56;21.33;;;9.43;;
61785;SDS011;47692;53.714;11.372;2023-04-08T02:43:22;18.48;;;9.50;;
61785;SDS011;47692;53.714;11.372;2023-04-08T02:45:55;18.70;;;9.50;;
61785;SDS011;47692;53.714;11.372;2023-04-08T02:48:21;20.77;;;8.77;;
61785;SDS011;47692;53.714;11.372;2023-04-08T02:50:46;21.25;;;9.80;;
61785;SDS011;47692;53.714;11.372;2023-04-08T02:53:11;22.27;;;9.95;;
61785;SDS011;47692;53.714;11.372;2023-04-08T02:55:37;20.23;;;10.40;;
61785;SDS011;47692;53.714;11.372;2023-04-08T02:58:03;25.67;;;9.98;;
61785;SDS011;47692;53.714;11.372;2023-04-08T03:00:28;26.90;;;10.13;;
61785;SDS011;47692;53.714;11.372;2023-04-08T03:02:54;20.65;;;9.20;;
61785;SDS011;47692;53.714;11.372;2023-04-08T03:05:19;23.08;;;9.50;;
61785;SDS011;47692;53.714;11.372;2023-04-08T03:07:45;25.17;;;9.80;;
61785;SDS011;47692;53.714;11.372;2023-04-08T03:10:11;17.58;;;9.63;;
61785;SDS011;47692;53.714;11.372;2023-04-08T03:12:36;17.77;;;8.10;;
61785;SDS011;47692;53.714;11.372;2023-04-08T03:15:02;16.60;;;8.52;;
61785;SDS011;47692;53.714;11.372;2023-04-08T03:17:28;21.70;;;9.23;;
61785;SDS011;47692;53.714;11.372;2023-04-08T03:19:53;18.77;;;8.75;;
61785;SDS011;47692;53.714;11.372;2023-04-08T03:22:19;19.65;;;9.50;;
61785;SDS011;47692;53.714;11.372;2023-04-08T03:24:44;23.70;;;9.27;;
61785;SDS011;47692;53.714;11.372;2023-04-08T03:27:10;20.95;;;9.48;;
61785;SDS011;47692;53.714;11.372;2023-04-08T03:29:36;20.65;;;9.63;;
61785;SDS011;47692;53.714;11.372;2023-04-08T03:32:02;26.67;;;9.45;;
61785;SDS011;47692;53.714;11.372;2023-04-08T03:34:27;21.23;;;9.57;;
61785;SDS011;47692;53.714;11.372;2023-04-08T03:36:52;22.10;;;9.95;;
61785;SDS011;47692;53.714;11.372;2023-04-08T03:39:18;20.38;;;9.85;;
61785;SDS011;47692;53.714;11.372;2023-04-08T03:41:43;20.02;;;9.15;;
61785;SDS011;47692;53.714;11.372;2023-04-08T03:44:09;19.00;;;9.18;;
61785;SDS011;47692;53.714;11.372;2023-04-08T03:46:34;24.27;;;11.63;;
61785;SDS011;47692;53.714;11.372;2023-04-08T03:48:59;23.35;;;9.77;;
61785;SDS011;47692;53.714;11.372;2023-04-08T03:51:25;23.17;;;9.63;;
61785;SDS011;47692;53.714;11.372;2023-04-08T03:53:51;22.27;;;9.55;;
61785;SDS011;47692;53.714;11.372;2023-04-08T03:56:16;25.80;;;9.23;;
61785;SDS011;47692;53.714;11.372;2023-04-08T03:58:41;22.33;;;10.05;;
61785;SDS011;47692;53.714;11.372;2023-04-08T04:01:07;22.20;;;9.55;;
61785;SDS011;47692;53.714;11.372;2023-04-08T04:03:32;22.67;;;10.30;;
61785;SDS011;47692;53.714;11.372;2023-04-08T04:05:58;18.60;;;9.25;;
61785;SDS011;47692;53.714;11.372;2023-04-08T04:08:23;24.50;;;10.30;;
61785;SDS011;47692;53.714;11.372;2023-04-08T04:10:48;24.35;;;9.85;;
61785;SDS011;47692;53.714;11.372;2023-04-08T04:13:14;24.02;;;11.00;;
61785;SDS011;47692;53.714;11.372;2023-04-08T04:15:39;23.08;;;10.30;;
61785;SDS011;47692;53.714;11.372;2023-04-08T04:18:05;20.42;;;9.38;;
61785;SDS011;47692;53.714;11.372;2023-04-08T04:20:31;27.88;;;10.80;;
61785;SDS011;47692;53.714;11.372;2023-04-08T04:22:57;25.40;;;10.68;;
61785;SDS011;47692;53.714;11.372;2023-04-08T04:25:23;29.55;;;11.07;;
61785;SDS011;47692;53.714;11.372;2023-04-08T04:27:48;24.80;;;11.55;;
61785;SDS011;47692;53.714;11.372;2023-04-08T04:30:14;24.08;;;10.93;;
61785;SDS011;47692;53.714;11.372;2023-04-08T04:32:42;29.00;;;11.43;;
61785;SDS011;47692;53.714;11.372;2023-04-08T04:35:08;23.30;;;10.32;;
61785;SDS011;47692;53.714;11.372;2023-04-08T04:37:34;27.25;;;12.18;;
61785;SDS011;47692;53.714;11.372;2023-04-08T04:40:00;24.77;;;10.45;;
61785;SDS011;47692;53.714;11.372;2023-04-08T04:42:26;29.77;;;11.23;;
61785;SDS011;47692;53.714;11.372;2023-04-08T04:44:51;24.15;;;11.23;;
61785;SDS011;47692;53.714;11.372;2023-04-08T04:47:18;25.98;;;10.30;;
61785;SDS011;47692;53.714;11.372;2023-04-08T04:49:43;24.10;;;10.98;;
61785;SDS011;47692;53.714;11.372;2023-04-08T04:52:09;26.70;;;11.85;;
61785;SDS011;47692;53.714;11.372;2023-04-08T04:54:35;23.73;;;11.75;;
61785;SDS011;47692;53.714;11.372;2023-04-08T04:57:00;23.15;;;10.68;;
61785;SDS011;47692;53.714;11.372;2023-04-08T04:59:26;24.23;;;10.43;;
61785;SDS011;47692;53.714;11.372;2023-04-08T05:01:51;26.40;;;11.57;;
61785;SDS011;47692;53.714;11.372;2023-04-08T05:04:16;22.42;;;10.27;;
61785;SDS011;47692;53.714;11.372;2023-04-08T05:06:42;21.10;;;10.30;;
61785;SDS011;47692;53.714;11.372;2023-04-08T05:09:07;22.00;;;10.20;;
61785;SDS011;47692;53.714;11.372;2023-04-08T05:11:32;21.75;;;9.30;;
61785;SDS011;47692;53.714;11.372;2023-04-08T05:13:58;21.00;;;9.27;;
61785;SDS011;47692;53.714;11.372;2023-04-08T05:16:23;26.33;;;9.88;;
61785;SDS011;47692;53.714;11.372;2023-04-08T05:18:48;21.70;;;9.95;;
61785;SDS011;47692;53.714;11.372;2023-04-08T05:21:13;22.63;;;10.27;;
61785;SDS011;47692;53.714;11.372;2023-04-08T05:23:39;23.80;;;11.32;;
61785;SDS011;47692;53.714;11.372;2023-04-08T05:26:07;28.80;;;12.02;;
61785;SDS011;47692;53.714;11.372;2023-04-08T05:28:33;28.50;;;11.88;;
61785;SDS011;47692;53.714;11.372;2023-04-08T05:30:58;27.42;;;12.05;;
61785;SDS011;47692;53.714;11.372;2023-04-08T05:33:24;30.27;;;12.25;;
61785;SDS011;47692;53.714;11.372;2023-04-08T05:35:50;22.52;;;10.32;;
61785;SDS011;47692;53.714;11.372;2023-04-08T05:38:16;26.92;;;10.27;;
61785;SDS011;47692;53.714;11.372;2023-04-08T05:40:42;26.00;;;9.82;;
61785;SDS011;47692;53.714;11.372;2023-04-08T05:43:07;25.10;;;10.88;;
61785;SDS011;47692;53.714;11.372;2023-04-08T05:45:32;25.98;;;10.00;;
61785;SDS011;47692;53.714;11.372;2023-04-08T05:47:58;23.08;;;10.98;;
61785;SDS011;47692;53.714;11.372;2023-04-08T05:50:23;23.20;;;10.15;;
61785;SDS011;47692;53.714;11.372;2023-04-08T05:52:48;25.40;;;10.93;;
61785;SDS011;47692;53.714;11.372;2023-04-08T05:55:14;26.42;;;11.57;;
61785;SDS011;47692;53.714;11.372;2023-04-08T05:57:40;26.88;;;11.80;;
61785;SDS011;47692;53.714;11.372;2023-04-08T06:00:06;26.23;;;11.68;;
61785;SDS011;47692;53.714;11.372;2023-04-08T06:02:33;25.90;;;11.02;;
61785;SDS011;47692;53.714;11.372;2023-04-08T06:04:59;22.10;;;11.07;;
61785;SDS011;47692;53.714;11.372;2023-04-08T06:07:25;27.63;;;10.75;;
61785;SDS011;47692;53.714;11.372;2023-04-08T06:09:50;24.73;;;10.40;;
61785;SDS011;47692;53.714;11.372;2023-04-08T06:12:15;28.05;;;10.45;;
61785;SDS011;47692;53.714;11.372;2023-04-08T06:14:41;29.55;;;11.13;;
61785;SDS011;47692;53.714;11.372;2023-04-08T06:17:06;25.25;;;11.10;;
61785;SDS011;47692;53.714;11.372;2023-04-08T06:19:31;23.75;;;10.10;;
61785;SDS011;47692;53.714;11.372;2023-04-08T06:21:57;25.13;;;9.68;;
61785;SDS011;47692;53.714;11.372;2023-04-08T06:24:26;26.92;;;10.75;;
61785;SDS011;47692;53.714;11.372;2023-04-08T06:26:53;26.08;;;11.15;;
61785;SDS011;47692;53.714;11.372;2023-04-08T06:29:19;27.65;;;10.90;;
61785;SDS011;47692;53.714;11.372;2023-04-08T06:31:45;25.40;;;11.10;;
61785;SDS011;47692;53.714;11.372;2023-04-08T06:34:11;21.30;;;10.13;;
61785;SDS011;47692;53.714;11.372;2023-04-08T06:36:36;27.02;;;11.15;;
61785;SDS011;47692;53.714;11.372;2023-04-08T06:39:02;23.98;;;10.40;;
61785;SDS011;47692;53.714;11.372;2023-04-08T06:41:28;27.83;;;10.82;;
61785;SDS011;47692;53.714;11.372;2023-04-08T06:43:54;26.52;;;10.73;;
61785;SDS011;47692;53.714;11.372;2023-04-08T06:46:19;24.05;;;10.60;;
61785;SDS011;47692;53.714;11.372;2023-04-08T06:48:45;25.20;;;9.98;;
61785;SDS011;47692;53.714;11.372;2023-04-08T06:51:11;24.98;;;11.50;;
61785;SDS011;47692;53.714;11.372;2023-04-08T06:53:36;21.83;;;10.25;;
61785;SDS011;47692;53.714;11.372;2023-04-08T06:56:01;27.08;;;10.75;;
61785;SDS011;47692;53.714;11.372;2023-04-08T06:58:27;29.05;;;9.90;;
61785;SDS011;47692;53.714;11.372;2023-04-08T07:00:53;22.73;;;10.43;;
61785;SDS011;47692;53.714;11.372;2023-04-08T07:03:20;23.27;;;10.35;;
61785;SDS011;47692;53.714;11.372;2023-04-08T07:05:46;23.92;;;9.32;;
61785;SDS011;47692;53.714;11.372;2023-04-08T07:08:12;19.45;;;9.27;;
61785;SDS011;47692;53.714;11.372;2023-04-08T07:10:37;22.13;;;9.98;;
61785;SDS011;47692;53.714;11.372;2023-04-08T07:13:02;23.52;;;9.55;;
61785;SDS011;47692;53.714;11.372;2023-04-08T07:15:28;20.85;;;9.20;;
61785;SDS011;47692;53.714;11.372;2023-04-08T07:17:53;19.25;;;9.02;;
61785;SDS011;47692;53.714;11.372;2023-04-08T07:20:21;18.70;;;8.57;;
61785;SDS011;47692;53.714;11.372;2023-04-08T07:22:47;14.35;;;7.15;;
61785;SDS011;47692;53.714;11.372;2023-04-08T07:25:12;20.65;;;9.52;;
61785;SDS011;47692;53.714;11.372;2023-04-08T07:27:37;22.48;;;8.43;;
61785;SDS011;47692;53.714;11.372;2023-04-08T07:30:03;17.85;;;8.00;;
61785;SDS011;47692;53.714;11.372;2023-04-08T07:32:29;19.10;;;8.10;;
61785;SDS011;47692;53.714;11.372;2023-04-08T07:34:54;18.60;;;8.48;;
61785;SDS011;47692;53.714;11.372;2023-04-08T07:37:19;16.20;;;7.10;;
61785;SDS011;47692;53.714;11.372;2023-04-08T07:39:45;16.15;;;7.85;;
61785;SDS011;47692;53.714;11.372;2023-04-08T07:42:10;18.80;;;8.25;;
61785;SDS011;47692;53.714;11.372;2023-04-08T07:44:36;16.73;;;7.93;;
61785;SDS011;47692;53.714;11.372;2023-04-08T07:47:02;16.83;;;7.95;;
61785;SDS011;47692;53.714;11.372;2023-04-08T07:49:28;18.05;;;8.45;;
61785;SDS011;47692;53.714;11.372;2023-04-08T07:51:53;17.65;;;9.23;;
61785;SDS011;47692;53.714;11.372;2023-04-08T07:54:18;18.13;;;8.00;;
61785;SDS011;47692;53.714;11.372;2023-04-08T07:56:43;20.52;;;9.27;;
61785;SDS011;47692;53.714;11.372;2023-04-08T07:59:09;18.38;;;8.40;;
61785;SDS011;47692;53.714;11.372;2023-04-08T08:01:35;18.15;;;7.95;;
61785;SDS011;47692;53.714;11.372;2023-04-08T08:04:01;17.27;;;8.25;;
61785;SDS011;47692;53.714;11.372;2023-04-08T08:06:27;13.20;;;7.15;;
61785;SDS011;47692;53.714;11.372;2023-04-08T08:08:53;21.67;;;8.48;;
61785;SDS011;47692;53.714;11.372;2023-04-08T08:11:18;16.35;;;8.18;;
61785;SDS011;47692;53.714;11.372;2023-04-08T08:13:45;19.63;;;8.32;;
61785;SDS011;47692;53.714;11.372;2023-04-08T08:16:10;21.40;;;7.75;;
61785;SDS011;47692;53.714;11.372;2023-04-08T08:18:36;17.88;;;7.88;;
61785;SDS011;47692;53.714;11.372;2023-04-08T08:21:03;18.20;;;7.63;;
61785;SDS011;47692;53.714;11.372;2023-04-08T08:23:29;17.80;;;8.07;;
61785;SDS011;47692;53.714;11.372;2023-04-08T08:25:58;19.40;;;8.18;;
61785;SDS011;47692;53.714;11.372;2023-04-08T08:28:27;19.17;;;8.85;;
61785;SDS011;47692;53.714;11.372;2023-04-08T08:30:52;19.45;;;7.90;;
61785;SDS011;47692;53.714;11.372;2023-04-08T08:33:18;18.38;;;8.32;;
61785;SDS011;47692;53.714;11.372;2023-04-08T08:35:43;21.17;;;8.20;;
61785;SDS011;47692;53.714;11.372;2023-04-08T08:38:08;17.17;;;7.97;;
61785;SDS011;47692;53.714;11.372;2023-04-08T08:40:34;15.98;;;7.68;;
61785;SDS011;47692;53.714;11.372;2023-04-08T08:42:59;18.33;;;8.60;;
61785;SDS011;47692;53.714;11.372;2023-04-08T08:45:25;21.20;;;8.73;;
61785;SDS011;47692;53.714;11.372;2023-04-08T08:47:51;16.83;;;7.72;;
61785;SDS011;47692;53.714;11.372;2023-04-08T08:50:17;19.25;;;7.85;;
61785;SDS011;47692;53.714;11.372;2023-04-08T08:52:49;17.77;;;8.85;;
61785;SDS011;47692;53.714;11.372;2023-04-08T08:55:18;17.27;;;8.23;;
61785;SDS011;47692;53.714;11.372;2023-04-08T08:57:44;15.48;;;8.25;;
61785;SDS011;47692;53.714;11.372;2023-04-08T09:00:10;19.65;;;8.73;;
61785;SDS011;47692;53.714;11.372;2023-04-08T09:02:37;20.27;;;9.00;;
61785;SDS011;47692;53.714;11.372;2023-04-08T09:05:04;18.48;;;7.72;;
61785;SDS011;47692;53.714;11.372;2023-04-08T09:07:30;19.63;;;9.10;;
61785;SDS011;47692;53.714;11.372;2023-04-08T09:09:59;16.42;;;7.70;;
61785;SDS011;47692;53.714;11.372;2023-04-08T09:12:24;18.33;;;9.13;;
61785;SDS011;47692;53.714;11.372;2023-04-08T09:15:01;20.05;;;9.65;;
61785;SDS011;47692;53.714;11.372;2023-04-08T09:17:31;21.70;;;8.70;;
61785;SDS011;47692;53.714;11.372;2023-04-08T09:20:05;20.27;;;8.80;;
61785;SDS011;47692;53.714;11.372;2023-04-08T09:25:24;22.08;;;9.50;;
61785;SDS011;47692;53.714;11.372;2023-04-08T09:27:51;23.02;;;10.57;;
61785;SDS011;47692;53.714;11.372;2023-04-08T09:30:18;19.77;;;9.82;;
61785;SDS011;47692;53.714;11.372;2023-04-08T09:32:50;21.52;;;9.57;;
61785;SDS011;47692;53.714;11.372;2023-04-08T09:35:20;23.27;;;10.10;;
61785;SDS011;47692;53.714;11.372;2023-04-08T09:37:47;23.80;;;9.80;;
61785;SDS011;47692;53.714;11.372;2023-04-08T09:40:13;24.73;;;10.73;;
61785;SDS011;47692;53.714;11.372;2023-04-08T09:42:45;24.85;;;9.98;;
61785;SDS011;47692;53.714;11.372;2023-04-08T09:45:12;19.20;;;10.00;;
61785;SDS011;47692;53.714;11.372;2023-04-08T09:50:46;20.90;;;9.80;;
61785;SDS011;47692;53.714;11.372;2023-04-08T09:53:18;21.08;;;9.05;;
61785;SDS011;47692;53.714;11.372;2023-04-08T09:55:50;20.42;;;9.45;;
61785;SDS011;47692;53.714;11.372;2023-04-08T09:58:20;18.83;;;9.07;;
61785;SDS011;47692;53.714;11.372;2023-04-08T10:00:51;19.75;;;9.48;;
61785;SDS011;47692;53.714;11.372;2023-04-08T10:05:51;20.38;;;9.68;;
61785;SDS011;47692;53.714;11.372;2023-04-08T10:08:18;19.02;;;9.25;;
61785;SDS011;47692;53.714;11.372;2023-04-08T10:10:43;21.55;;;10.73;;
61785;SDS011;47692;53.714;11.372;2023-04-08T10:13:10;20.08;;;9.90;;
61785;SDS011;47692;53.714;11.372;2023-04-08T10:15:36;20.17;;;9.07;;
61785;SDS011;47692;53.714;11.372;2023-04-08T10:23:00;20.13;;;10.17;;
61785;SDS011;47692;53.714;11.372;2023-04-08T10:27:55;23.73;;;10.32;;
61785;SDS011;47692;53.714;11.372;2023-04-08T10:32:54;21.27;;;10.35;;
61785;SDS011;47692;53.714;11.372;2023-04-08T10:35:36;22.33;;;10.68;;
61785;SDS011;47692;53.714;11.372;2023-04-08T10:38:06;24.45;;;10.27;;
61785;SDS011;47692;53.714;11.372;2023-04-08T10:40:35;22.70;;;10.40;;
61785;SDS011;47692;53.714;11.372;2023-04-08T10:43:03;19.80;;;9.73;;
61785;SDS011;47692;53.714;11.372;2023-04-08T10:45:29;25.58;;;10.77;;
61785;SDS011;47692;53.714;11.372;2023-04-08T10:47:55;27.75;;;10.73;;
61785;SDS011;47692;53.714;11.372;2023-04-08T10:50:20;19.40;;;9.55;;
61785;SDS011;47692;53.714;11.372;2023-04-08T10:52:51;28.10;;;10.20;;
61785;SDS011;47692;53.714;11.372;2023-04-08T10:55:23;22.92;;;10.38;;
61785;SDS011;47692;53.714;11.372;2023-04-08T10:57:50;18.70;;;9.52;;
61785;SDS011;47692;53.714;11.372;2023-04-08T11:00:17;21.45;;;10.25;;
61785;SDS011;47692;53.714;11.372;2023-04-08T11:02:43;22.17;;;10.77;;
61785;SDS011;47692;53.714;11.372;2023-04-08T11:05:11;21.00;;;10.15;;
61785;SDS011;47692;53.714;11.372;2023-04-08T11:07:40;21.63;;;9.35;;
61785;SDS011;47692;53.714;11.372;2023-04-08T11:10:06;23.52;;;10.93;;
61785;SDS011;47692;53.714;11.372;2023-04-08T11:12:33;23.58;;;11.23;;
61785;SDS011;47692;53.714;11.372;2023-04-08T11:14:59;24.10;;;10.95;;
61785;SDS011;47692;53.714;11.372;2023-04-08T11:17:25;23.48;;;10.77;;
61785;SDS011;47692;53.714;11.372;2023-04-08T11:19:51;26.23;;;12.27;;
61785;SDS011;47692;53.714;11.372;2023-04-08T11:22:16;26.63;;;11.88;;
61785;SDS011;47692;53.714;11.372;2023-04-08T11:24:42;23.02;;;10.30;;
61785;SDS011;47692;53.714;11.372;2023-04-08T11:27:08;25.63;;;11.95;;
61785;SDS011;47692;53.714;11.372;2023-04-08T11:29:33;27.95;;;12.30;;
61785;SDS011;47692;53.714;11.372;2023-04-08T11:31:59;26.00;;;12.20;;
61785;SDS011;47692;53.714;11.372;2023-04-08T11:34:24;24.75;;;12.00;;
61785;SDS011;47692;53.714;11.372;2023-04-08T11:36:50;23.73;;;11.38;;
61785;SDS011;47692;53.714;11.372;2023-04-08T11:39:16;27.52;;;12.30;;
61785;SDS011;47692;53.714;11.372;2023-04-08T11:41:41;26.85;;;11.95;;
61785;SDS011;47692;53.714;11.372;2023-04-08T11:44:08;25.45;;;11.52;;
61785;SDS011;47692;53.714;11.372;2023-04-08T11:46:34;24.50;;;11.57;;
61785;SDS011;47692;53.714;11.372;2023-04-08T11:49:00;28.73;;;12.00;;
61785;SDS011;47692;53.714;11.372;2023-04-08T11:51:27;29.70;;;12.68;;
61785;SDS011;47692;53.714;11.372;2023-04-08T11:53:52;26.52;;;11.70;;
61785;SDS011;47692;53.714;11.372;2023-04-08T11:56:19;25.70;;;11.55;;
61785;SDS011;47692;53.714;11.372;2023-04-08T11:58:45;26.17;;;12.18;;
61785;SDS011;47692;53.714;11.372;2023-04-08T12:01:11;20.67;;;10.60;;
61785;SDS011;47692;53.714;11.372;2023-04-08T12:03:37;26.60;;;12.75;;
61785;SDS011;47692;53.714;11.372;2023-04-08T12:06:02;22.60;;;11.45;;
61785;SDS011;47692;53.714;11.372;2023-04-08T12:08:29;26.85;;;12.52;;
61785;SDS011;47692;53.714;11.372;2023-04-08T12:10:54;26.98;;;12.63;;
61785;SDS011;47692;53.714;11.372;2023-04-08T12:13:20;26.13;;;12.30;;
61785;SDS011;47692;53.714;11.372;2023-04-08T12:15:45;25.83;;;11.75;;
61785;SDS011;47692;53.714;11.372;2023-04-08T12:18:10;28.75;;;13.00;;
61785;SDS011;47692;53.714;11.372;2023-04-08T12:20:36;28.23;;;12.80;;
61785;SDS011;47692;53.714;11.372;2023-04-08T12:23:01;39.17;;;16.02;;
61785;SDS011;47692;53.714;11.372;2023-04-08T12:25:26;24.65;;;12.57;;
61785;SDS011;47692;53.714;11.372;2023-04-08T12:27:53;28.98;;;12.55;;
61785;SDS011;47692;53.714;11.372;2023-04-08T12:30:18;29.00;;;12.60;;
61785;SDS011;47692;53.714;11.372;2023-04-08T12:32:43;24.30;;;10.52;;
61785;SDS011;47692;53.714;11.372;2023-04-08T12:35:10;35.22;;;14.80;;
61785;SDS011;47692;53.714;11.372;2023-04-08T12:37:35;31.98;;;13.63;;
61785;SDS011;47692;53.714;11.372;2023-04-08T12:40:00;37.65;;;14.95;;
61785;SDS011;47692;53.714;11.372;2023-04-08T12:42:26;26.67;;;13.00;;
61785;SDS011;47692;53.714;11.372;2023-04-08T12:44:52;26.25;;;10.85;;
61785;SDS011;47692;53.714;11.372;2023-04-08T12:47:17;30.20;;;13.40;;
61785;SDS011;47692;53.714;11.372;2023-04-08T12:49:43;30.20;;;12.75;;
61785;SDS011;47692;53.714;11.372;2023-04-08T12:52:08;25.65;;;12.23;;
61785;SDS011;47692;53.714;11.372;2023-04-08T12:54:33;25.98;;;11.65;;
61785;SDS011;47692;53.714;11.372;2023-04-08T12:56:58;22.83;;;10.38;;
61785;SDS011;47692;53.714;11.372;2023-04-08T12:59:25;22.27;;;9.90;;
61785;SDS011;47692;53.714;11.372;2023-04-08T13:01:50;23.02;;;10.75;;
61785;SDS011;47692;53.714;11.372;2023-04-08T13:04:16;23.10;;;11.05;;
61785;SDS011;47692;53.714;11.372;2023-04-08T13:06:41;21.17;;;11.18;;
61785;SDS011;47692;53.714;11.372;2023-04-08T13:09:07;22.40;;;10.20;;
61785;SDS011;47692;53.714;11.372;2023-04-08T13:11:32;21.40;;;9.77;;
61785;SDS011;47692;53.714;11.372;2023-04-08T13:13:58;20.77;;;10.52;;
61785;SDS011;47692;53.714;11.372;2023-04-08T13:16:23;21.25;;;10.70;;
61785;SDS011;47692;53.714;11.372;2023-04-08T13:18:49;18.58;;;10.40;;
61785;SDS011;47692;53.714;11.372;2023-04-08T13:21:14;26.92;;;11.38;;
61785;SDS011;47692;53.714;11.372;2023-04-08T13:23:40;19.60;;;10.02;;
61785;SDS011;47692;53.714;11.372;2023-04-08T13:26:05;21.70;;;10.50;;
61785;SDS011;47692;53.714;11.372;2023-04-08T13:28:31;24.27;;;10.38;;
61785;SDS011;47692;53.714;11.372;2023-04-08T13:30:56;24.17;;;10.80;;
61785;SDS011;47692;53.714;11.372;2023-04-08T13:33:21;19.92;;;10.70;;
61785;SDS011;47692;53.714;11.372;2023-04-08T13:35:47;21.70;;;9.68;;
61785;SDS011;47692;53.714;11.372;2023-04-08T13:38:12;20.95;;;9.65;;
61785;SDS011;47692;53.714;11.372;2023-04-08T13:40:38;21.38;;;10.45;;
61785;SDS011;47692;53.714;11.372;2023-04-08T13:43:03;19.80;;;10.23;;
61785;SDS011;47692;53.714;11.372;2023-04-08T13:45:29;21.25;;;10.00;;
61785;SDS011;47692;53.714;11.372;2023-04-08T13:47:54;21.20;;;9.35;;
61785;SDS011;47692;53.714;11.372;2023-04-08T13:50:20;22.38;;;10.35;;
61785;SDS011;47692;53.714;11.372;2023-04-08T13:52:46;23.23;;;10.05;;
61785;SDS011;47692;53.714;11.372;2023-04-08T13:55:11;19.67;;;10.05;;
61785;SDS011;47692;53.714;11.372;2023-04-08T13:57:36;23.17;;;11.02;;
61785;SDS011;47692;53.714;11.372;2023-04-08T14:00:01;22.80;;;10.30;;
61785;SDS011;47692;53.714;11.372;2023-04-08T14:02:27;23.73;;;10.65;;
61785;SDS011;47692;53.714;11.372;2023-04-08T14:04:53;25.23;;;11.68;;
61785;SDS011;47692;53.714;11.372;2023-04-08T14:07:18;27.23;;;12.52;;
61785;SDS011;47692;53.714;11.372;2023-04-08T14:09:43;20.83;;;10.20;;
61785;SDS011;47692;53.714;11.372;2023-04-08T14:12:09;22.25;;;10.07;;
61785;SDS011;47692;53.714;11.372;2023-04-08T14:14:34;22.98;;;10.82;;
61785;SDS011;47692;53.714;11.372;2023-04-08T14:17:00;26.67;;;12.88;;
61785;SDS011;47692;53.714;11.372;2023-04-08T14:19:25;22.20;;;12.00;;
61785;SDS011;47692;53.714;11.372;2023-04-08T14:21:51;25.38;;;11.90;;
61785;SDS011;47692;53.714;11.372;2023-04-08T14:24:16;25.55;;;11.85;;
61785;SDS011;47692;53.714;11.372;2023-04-08T14:26:41;27.23;;;12.15;;
61785;SDS011;47692;53.714;11.372;2023-04-08T14:29:07;26.42;;;12.35;;
61785;SDS011;47692;53.714;11.372;2023-04-08T14:31:32;25.90;;;11.93;;
61785;SDS011;47692;53.714;11.372;2023-04-08T14:33:59;28.65;;;12.80;;
61785;SDS011;47692;53.714;11.372;2023-04-08T14:36:25;27.27;;;12.00;;